createdAt,value
2019-03-05T00:04:06.192Z,1000.45
2019-03-05T00:08:06.523Z,1000.47
2019-03-05T00:13:07.116Z,1000.29
2019-03-05T00:18:06.538Z,1000.45
2019-03-05T00:23:08.685Z,1000.46
2019-03-05T00:28:06.790Z,1000.49
2019-03-05T00:33:06.439Z,1000.56
2019-03-05T00:38:06.462Z,1000.57
2019-03-05T00:43:07.002Z,1000.5
2019-03-05T00:48:07.022Z,1000.42
2019-03-05T00:52:07.110Z,1000.56
2019-03-05T00:53:06.510Z,1000.56
2019-03-05T00:58:06.510Z,1000.67
2019-03-05T01:03:06.666Z,1000.65
2019-03-05T01:07:07.451Z,1000.72
2019-03-05T01:12:07.090Z,1000.79
2019-03-05T01:17:06.960Z,1000.63
2019-03-05T01:22:07.056Z,1000.73
2019-03-05T01:27:07.154Z,1000.68
2019-03-05T01:32:06.692Z,1000.64
2019-03-05T01:37:06.805Z,1000.68
2019-03-05T01:42:06.437Z,1000.76
2019-03-05T01:47:07.124Z,1000.67
2019-03-05T01:52:07.199Z,1000.57
2019-03-05T01:57:07.280Z,1000.48
2019-03-05T02:02:06.401Z,1000.58
2019-03-05T02:07:09.777Z,1000.49
2019-03-05T02:12:06.770Z,1000.4
2019-03-05T02:17:06.509Z,1000.48
2019-03-05T02:22:06.601Z,1000.49
2019-03-05T02:27:06.648Z,1000.52
2019-03-05T02:32:06.602Z,1000.51
2019-03-05T02:37:06.726Z,1000.38
2019-03-05T02:42:06.320Z,1000.47
2019-03-05T02:46:06.953Z,1000.42
2019-03-05T02:51:07.130Z,1000.44
2019-03-05T02:56:07.344Z,1000.4
2019-03-05T03:01:06.723Z,1000.41
2019-03-05T03:06:06.884Z,1000.45
2019-03-05T03:11:06.527Z,1000.52
2019-03-05T03:16:06.091Z,1000.53
2019-03-05T03:21:06.198Z,1000.52
2019-03-05T03:26:06.360Z,1000.56
2019-03-05T03:30:08.726Z,1000.58
2019-03-05T03:36:07.414Z,1000.49
2019-03-05T03:41:06.350Z,1000.57
2019-03-05T03:46:06.850Z,1000.62
2019-03-05T03:50:06.359Z,1000.56
2019-03-05T03:55:06.785Z,1000.77
2019-03-05T04:00:08.790Z,1000.68
2019-03-05T04:05:07.479Z,1000.76
2019-03-05T04:10:06.628Z,1000.82
2019-03-05T04:15:09.275Z,1000.91
2019-03-05T04:19:06.704Z,1001.13
2019-03-05T04:24:07.393Z,1001
2019-03-05T04:25:06.839Z,1001
2019-03-05T04:29:06.316Z,1001.17
2019-03-05T04:34:06.491Z,1001.27
2019-03-05T04:39:07.035Z,1001.15
2019-03-05T04:44:06.500Z,1001.24
2019-03-05T04:49:06.287Z,1001.3
2019-03-05T04:54:07.035Z,1001.38
2019-03-05T04:59:06.956Z,1001.5
2019-03-05T05:03:07.302Z,1001.56
2019-03-05T05:08:06.775Z,1001.59
2019-03-05T05:13:07.264Z,1001.59
2019-03-05T05:18:07.203Z,1001.58
2019-03-05T05:23:06.376Z,1001.57
2019-03-05T05:28:07.705Z,1001.58
2019-03-05T05:33:06.360Z,1001.73
2019-03-05T05:38:06.534Z,1001.78
2019-03-05T05:43:06.906Z,1001.84
2019-03-05T05:48:07.252Z,1001.79
2019-03-05T05:52:06.652Z,1001.74
2019-03-05T05:57:06.802Z,1001.8
2019-03-05T06:02:06.198Z,1001.99
2019-03-05T06:07:06.303Z,1002.05
2019-03-05T06:12:07.002Z,1002.04
2019-03-05T06:17:06.990Z,1002.19
2019-03-05T06:22:06.200Z,1002.21
2019-03-05T06:27:07.075Z,1002.25
2019-03-05T06:32:07.074Z,1002.34
2019-03-05T06:37:07.266Z,1002.43
2019-03-05T06:41:06.451Z,1002.35
2019-03-05T06:46:06.636Z,1002.35
2019-03-05T06:51:06.878Z,1002.4
2019-03-05T06:56:07.040Z,1002.38
2019-03-05T07:01:06.913Z,1002.47
2019-03-05T07:06:07.075Z,1002.72
2019-03-05T07:11:07.633Z,1002.62
2019-03-05T07:16:07.590Z,1002.72
2019-03-05T07:20:06.187Z,1002.74
2019-03-05T07:25:07.229Z,1002.74
2019-03-05T07:30:07.645Z,1002.76
2019-03-05T07:35:06.433Z,1002.85
2019-03-05T07:40:07.129Z,1002.94
2019-03-05T07:45:07.531Z,1003.07
2019-03-05T07:50:07.104Z,1003.22
2019-03-05T07:55:13.410Z,1003.41
2019-03-05T08:00:09.293Z,1003.63
2019-03-05T08:04:06.283Z,1003.84
2019-03-05T08:09:07.002Z,1004.16
2019-03-05T08:14:06.138Z,1004.05
2019-03-05T08:19:07.096Z,1004.01
2019-03-05T08:24:06.189Z,1004
2019-03-05T08:29:06.331Z,1004.04
2019-03-05T08:33:06.698Z,1004.02
2019-03-05T08:38:06.763Z,1003.88
2019-03-05T08:43:07.262Z,1003.9
2019-03-05T08:48:07.134Z,1003.94
2019-03-05T08:53:07.396Z,1004.04
2019-03-05T08:58:06.575Z,1004.04
2019-03-05T09:03:06.844Z,1003.92
2019-03-05T09:07:08.021Z,1003.95
2019-03-05T09:08:06.457Z,1003.95
2019-03-05T09:13:06.950Z,1004.1
2019-03-05T09:17:06.892Z,1004.19
2019-03-05T09:22:06.182Z,1004.25
2019-03-05T09:27:06.357Z,1004.22
2019-03-05T09:32:06.424Z,1004.16
2019-03-05T09:37:06.595Z,1004.21
2019-03-05T09:42:06.221Z,1004.27
2019-03-05T09:47:06.976Z,1004.15
2019-03-05T09:52:06.154Z,1004.17
2019-03-05T09:57:06.325Z,1004.37
2019-03-05T10:01:07.541Z,1004.53
2019-03-05T10:06:06.727Z,1004.49
2019-03-05T10:11:07.286Z,1004.49
2019-03-05T10:16:07.003Z,1004.67
2019-03-05T10:21:07.305Z,1004.59
2019-03-05T10:26:06.443Z,1004.6
2019-03-05T10:30:08.535Z,1004.54
2019-03-05T10:35:07.543Z,1004.53
2019-03-05T10:40:07.207Z,1004.59
2019-03-05T10:45:08.755Z,1004.52
2019-03-05T10:50:16.169Z,1004.55
2019-03-05T10:55:07.351Z,1004.56
2019-03-05T11:00:08.865Z,1004.45
2019-03-05T11:05:06.750Z,1004.53
2019-03-05T11:10:07.433Z,1004.37
2019-03-05T11:15:08.313Z,1004.44
2019-03-05T11:20:07.331Z,1004.52
2019-03-05T11:25:06.558Z,1004.59
2019-03-05T11:29:07.171Z,1004.65
2019-03-05T11:34:07.376Z,1004.72
2019-03-05T11:39:07.857Z,1004.69
2019-03-05T11:44:07.047Z,1004.58
2019-03-05T11:49:06.816Z,1004.59
2019-03-05T11:54:07.035Z,1004.66
2019-03-05T11:59:07.261Z,1004.56
2019-03-05T12:03:07.744Z,1004.52
2019-03-05T12:08:06.949Z,1004.59
2019-03-05T12:13:07.621Z,1004.67
2019-03-05T12:18:07.612Z,1004.43
2019-03-05T12:23:11.826Z,1004.58
2019-03-05T12:28:11.698Z,1004.59
2019-03-05T12:33:07.566Z,1004.73
2019-03-05T12:38:07.770Z,1004.86
2019-03-05T12:43:07.289Z,1005.55
2019-03-05T12:47:06.639Z,1005.68
2019-03-05T12:53:07.500Z,1005.44
2019-03-05T12:57:07.076Z,1005.64
2019-03-05T13:02:06.942Z,1005.61
2019-03-05T13:07:07.046Z,1005.48
2019-03-05T13:12:07.715Z,1005.41
2019-03-05T13:17:07.331Z,1005.51
2019-03-05T13:22:07.454Z,1005.33
2019-03-05T13:26:08.878Z,1005.25
2019-03-05T13:31:06.703Z,1005.25
2019-03-05T13:36:11.921Z,1005.24
2019-03-05T13:41:06.860Z,1005.23
2019-03-05T13:46:07.213Z,1005.34
2019-03-05T13:51:06.671Z,1005.3
2019-03-05T13:56:07.364Z,1005.35
2019-03-05T14:01:07.108Z,1005.44
2019-03-05T14:06:06.524Z,1005.53
2019-03-05T14:11:06.842Z,1005.62
2019-03-05T14:15:09.272Z,1005.73
2019-03-05T14:20:08.375Z,1005.78
2019-03-05T14:21:06.660Z,1005.78
2019-03-05T14:25:07.613Z,1005.8
2019-03-05T14:30:07.446Z,1005.82
2019-03-05T14:35:06.779Z,1005.91
2019-03-05T14:40:22.633Z,1005.99
2019-03-05T14:45:08.530Z,1005.89
2019-03-05T14:50:06.743Z,1005.93
2019-03-05T14:55:07.788Z,1006.08
2019-03-05T14:59:06.882Z,1006.16
2019-03-05T15:05:07.026Z,1006.2
2019-03-05T15:09:07.212Z,1006.16
2019-03-05T15:14:07.062Z,1006.19
2019-03-05T15:19:06.847Z,1006.26
2019-03-05T15:24:06.759Z,1006.37
2019-03-05T15:29:06.910Z,1006.38
2019-03-05T15:34:06.802Z,1006.41
2019-03-05T15:39:07.204Z,1006.34
2019-03-05T15:44:07.217Z,1006.32
2019-03-05T15:49:07.651Z,1006.32
2019-03-05T15:54:06.356Z,1006.38
2019-03-05T15:59:07.581Z,1006.39
2019-03-05T16:04:06.321Z,1006.46
2019-03-05T16:09:06.856Z,1006.56
2019-03-05T16:14:07.212Z,1006.71
2019-03-05T16:19:06.368Z,1006.71
2019-03-05T16:24:07.453Z,1006.95
2019-03-05T16:29:06.409Z,1007.11
2019-03-05T16:33:06.675Z,1006.93
2019-03-05T16:38:06.527Z,1007.04
2019-03-05T16:43:07.027Z,1007.19
2019-03-05T16:48:08.336Z,1007.27
2019-03-05T16:53:06.457Z,1007.36
2019-03-05T16:57:07.146Z,1007.46
2019-03-05T16:58:06.389Z,1007.46
2019-03-05T17:02:06.528Z,1007.58
2019-03-05T17:08:07.407Z,1007.77
2019-03-05T17:12:06.678Z,1007.94
2019-03-05T17:17:07.054Z,1008.04
2019-03-05T17:22:06.567Z,1008.18
2019-03-05T17:27:06.742Z,1008.34
2019-03-05T17:32:06.975Z,1008.49
2019-03-05T17:37:06.987Z,1008.62
2019-03-05T17:42:07.087Z,1008.75
2019-03-05T17:47:07.091Z,1008.85
2019-03-05T17:51:07.738Z,1008.96
2019-03-05T17:56:07.723Z,1008.99
2019-03-05T18:01:06.544Z,1009.1
2019-03-05T18:06:07.066Z,1009.13
2019-03-05T18:11:06.509Z,1009.21
2019-03-05T18:16:06.634Z,1009.37
2019-03-05T18:21:06.616Z,1009.42
2019-03-05T18:26:07.090Z,1009.5
2019-03-05T18:31:06.435Z,1009.64
2019-03-05T18:35:07.864Z,1009.57
2019-03-05T18:36:07.078Z,1009.57
2019-03-05T18:40:07.675Z,1009.69
2019-03-05T18:45:08.187Z,1009.8
2019-03-05T18:50:06.589Z,1009.84
2019-03-05T18:55:07.055Z,1010.01
2019-03-05T19:00:09.575Z,1010.08
2019-03-05T19:05:07.587Z,1010.21
2019-03-05T19:10:06.668Z,1010.31
2019-03-05T19:15:09.087Z,1010.48
2019-03-05T19:19:06.905Z,1010.6
2019-03-05T19:24:06.799Z,1010.68
2019-03-05T19:29:06.903Z,1010.71
2019-03-05T19:34:06.886Z,1010.82
2019-03-05T19:39:07.434Z,1010.9
2019-03-05T19:44:06.727Z,1010.97
2019-03-05T19:49:06.313Z,1011.03
2019-03-05T19:54:06.638Z,1011.08
2019-03-05T19:58:06.629Z,1011.21
2019-03-05T20:03:06.927Z,1011.25
2019-03-05T20:08:07.079Z,1011.3
2019-03-05T20:13:06.786Z,1011.38
2019-03-05T20:18:07.440Z,1011.44
2019-03-05T20:23:06.682Z,1011.49
2019-03-05T20:28:06.279Z,1011.52
2019-03-05T20:32:06.657Z,1011.71
2019-03-05T20:33:06.827Z,1011.71
2019-03-05T20:38:07.117Z,1011.66
2019-03-05T20:43:06.767Z,1011.74
2019-03-05T20:47:06.936Z,1011.76
2019-03-05T20:53:06.307Z,1011.83
2019-03-05T20:57:06.579Z,1011.84
2019-03-05T21:02:06.303Z,1011.97
2019-03-05T21:07:06.541Z,1012.07
2019-03-05T21:12:06.258Z,1012.02
2019-03-05T21:17:07.109Z,1012.07
2019-03-05T21:22:06.396Z,1012.19
2019-03-05T21:26:07.034Z,1012.18
2019-03-05T21:31:07.405Z,1012.3
2019-03-05T21:32:06.204Z,1012.3
2019-03-05T21:36:07.094Z,1012.35
2019-03-05T21:41:06.818Z,1012.45
2019-03-05T21:46:06.652Z,1012.52
2019-03-05T21:51:06.811Z,1012.57
2019-03-05T21:56:06.954Z,1012.7
2019-03-05T22:01:06.196Z,1012.75
2019-03-05T22:06:06.438Z,1012.79
2019-03-05T22:10:08.070Z,1012.84
2019-03-05T22:15:08.779Z,1012.92
2019-03-05T22:21:06.309Z,1012.92
2019-03-05T22:25:07.229Z,1013
2019-03-05T22:30:08.615Z,1013.08
2019-03-05T22:35:06.697Z,1013.14
2019-03-05T22:40:06.857Z,1013.11
2019-03-05T22:45:08.174Z,1013.15
2019-03-05T22:50:07.060Z,1013.21
2019-03-05T22:55:07.193Z,1013.25
2019-03-05T23:00:07.820Z,1013.26
2019-03-05T23:04:07.172Z,1013.26
2019-03-05T23:10:07.127Z,1013.2
2019-03-05T23:15:08.206Z,1013.27
2019-03-05T23:19:06.503Z,1013.35
2019-03-05T23:24:06.586Z,1013.35
2019-03-05T23:29:06.639Z,1013.42
2019-03-05T23:34:07.055Z,1013.51
2019-03-05T23:39:06.353Z,1013.54
2019-03-05T23:44:06.665Z,1013.57
2019-03-05T23:49:06.417Z,1013.66
2019-03-05T23:54:06.725Z,1013.62
2019-03-05T23:59:06.813Z,1013.72
